OTBH/IUD METAR and TAF weather

Enter ICAO airport designator
Station Type Date Time Source
OTBH METAR 2020/10/29 16:56 UTC NOAA

OTBH 291656Z 00000KT 9999 CLR 27/13 A3000 RMK AO2A SLP160 T02650132


Station Type Date Time Source
OTBH Decoded METAR 2020/10/29 16:56 UTC NOAA

Station name not available
Oct 29, 2020 - 12:56 PM EDT / 2020.10.29 1656 UTC
Wind: Calm:0
Visibility: greater than 7 mile(s):0
Sky conditions: clear
Temperature: 79.7 F (26.5 C)
Dew Point: 55.8 F (13.2 C)
Relative Humidity: 43%
Pressure (altimeter): 30 in. Hg (1015 hPa)
ob: OTBH 291656Z 00000KT 9999 CLR 27/13 A3000 RMK AO2A SLP160 T02650132
cycle: 17

Station Type Date Time Source
OTBH TAF 2020/10/29 16:18 UTC NOAA

TAF TAF OTBH 291600Z 2916/3022 10006KT 9999 SKC QNH2999INS
BECMG 2921/2922 34006KT 8000 BR SKC QNH3000INS
BECMG 3004/3005 35006KT 9999 NSW SKC QNH3002INS
BECMG 3008/3009 02009KT 9999 SKC QNH2992INS
BECMG 3012/3013 10006KT 9999 SKC QNH2994INS TX34/3012Z TN21/3003Z

Example: see airport list